Time;durP1;ratioP1;P1;durP2;ratioP2;P2;SDS_P1;SDS_P2;PMS_P1;PMS_P2;Temp;Humidity;BMP_temperature;BMP_pressure;BME280_temperature;BME280_humidity;BME280_pressure;Samples;Min_cycle;Max_cycle;Signal;HPM_P1;HPM_P2
2021/07/26 00:01:34;;;;;;;16.70;8.68;;;17.20;99.90;;;;;;4968961;28;20025;-92
2021/07/26 00:04:00;;;;;;;11.27;7.68;;;17.20;99.90;;;;;;4978378;28;20081;-92
2021/07/26 00:06:26;;;;;;;11.15;7.50;;;17.20;99.90;;;;;;4980402;28;20442;-92
2021/07/26 00:08:51;;;;;;;13.93;7.88;;;17.20;99.90;;;;;;4980207;28;20061;-91
2021/07/26 00:11:17;;;;;;;11.15;7.38;;;17.10;99.90;;;;;;4980362;28;20423;-92
2021/07/26 00:13:43;;;;;;;16.13;7.88;;;17.10;99.90;;;;;;4980365;28;20054;-91
2021/07/26 00:16:09;;;;;;;12.95;7.57;;;17.10;99.90;;;;;;4980343;28;20034;-92
2021/07/26 00:18:34;;;;;;;15.15;7.28;;;17.10;99.90;;;;;;4980052;28;20030;-92
2021/07/26 00:21:01;;;;;;;12.88;7.07;;;17.00;99.90;;;;;;4979975;28;20026;-92
2021/07/26 00:23:27;;;;;;;14.25;7.90;;;17.00;99.90;;;;;;4978933;28;20041;-92
2021/07/26 00:25:53;;;;;;;21.00;8.23;;;16.90;99.90;;;;;;4978895;28;20034;-92
2021/07/26 00:28:19;;;;;;;15.18;8.20;;;16.90;99.90;;;;;;4979386;28;20121;-93
2021/07/26 00:30:45;;;;;;;12.30;7.88;;;16.90;99.90;;;;;;4979075;28;20027;-92
2021/07/26 00:36:44;;;;;;;12.30;8.23;;;16.90;99.90;;;;;;4974589;28;20023;-92
2021/07/26 00:39:13;;;;;;;14.77;8.10;;;16.90;99.90;;;;;;4980036;28;20483;-93
2021/07/26 00:41:40;;;;;;;18.10;8.63;;;16.80;99.90;;;;;;4979814;28;20034;-93
2021/07/26 00:44:06;;;;;;;14.60;7.85;;;16.80;99.90;;;;;;4979934;28;20026;-92
2021/07/26 00:46:34;;;;;;;20.02;8.10;;;16.80;99.90;;;;;;4979728;28;20018;-92
2021/07/26 00:49:08;;;;;;;19.95;9.60;;;16.80;99.90;;;;;;4979623;28;20031;-91
2021/07/26 00:51:35;;;;;;;14.18;8.27;;;16.70;99.90;;;;;;4978732;28;20508;-92
2021/07/26 00:54:02;;;;;;;13.40;8.80;;;16.70;99.90;;;;;;4981976;28;20395;-92
2021/07/26 00:56:29;;;;;;;15.27;8.52;;;16.60;99.90;;;;;;4984000;28;20559;-91
2021/07/26 00:58:55;;;;;;;14.60;7.70;;;16.60;99.90;;;;;;4979594;28;20056;-92
2021/07/26 01:01:21;;;;;;;17.15;9.82;;;16.50;99.90;;;;;;4978720;28;20019;-92
2021/07/26 01:03:46;;;;;;;13.15;8.63;;;16.50;99.90;;;;;;4978808;28;20072;-92
2021/07/26 01:06:13;;;;;;;17.58;9.40;;;16.50;99.90;;;;;;4979389;28;20022;-92
2021/07/26 01:08:40;;;;;;;16.52;8.75;;;16.50;99.90;;;;;;4979171;28;20034;-93
2021/07/26 01:11:06;;;;;;;16.92;9.88;;;16.50;99.90;;;;;;4978996;28;20034;-93
2021/07/26 01:13:32;;;;;;;15.85;10.93;;;16.40;99.90;;;;;;4978978;28;20502;-92
2021/07/26 01:15:59;;;;;;;20.75;10.15;;;16.40;99.90;;;;;;4978528;28;20066;-92
2021/07/26 01:18:28;;;;;;;18.38;10.68;;;16.40;99.90;;;;;;4979278;28;20079;-92
2021/07/26 01:21:09;;;;;;;17.40;9.90;;;16.30;99.90;;;;;;4978824;28;20113;-93
2021/07/26 01:23:37;;;;;;;21.77;11.25;;;16.30;99.90;;;;;;4979303;28;20028;-92
2021/07/26 01:26:07;;;;;;;16.00;9.02;;;16.20;99.90;;;;;;4963007;28;20484;-93
2021/07/26 01:28:36;;;;;;;16.80;9.00;;;16.20;99.90;;;;;;4978712;28;20049;-93
2021/07/26 01:31:02;;;;;;;16.98;9.52;;;16.20;99.90;;;;;;4978699;28;20129;-93
2021/07/26 01:33:28;;;;;;;20.08;9.65;;;16.20;99.90;;;;;;4978636;28;20046;-93
2021/07/26 01:35:54;;;;;;;17.00;10.18;;;16.20;99.90;;;;;;4978629;28;20113;-91
2021/07/26 01:38:20;;;;;;;18.33;10.00;;;16.10;99.90;;;;;;4978094;28;20064;-92
2021/07/26 01:40:50;;;;;;;17.45;8.73;;;16.10;99.90;;;;;;4978506;28;20085;-92
2021/07/26 01:43:17;;;;;;;14.85;9.20;;;16.10;99.90;;;;;;4979132;28;20567;-92
2021/07/26 01:45:55;;;;;;;12.65;8.18;;;16.10;99.90;;;;;;4978287;28;20034;-91
2021/07/26 01:48:40;;;;;;;25.45;9.20;;;16.10;99.90;;;;;;4977712;28;20106;-92
2021/07/26 01:51:13;;;;;;;15.50;7.80;;;16.10;99.90;;;;;;4977575;28;20077;-91
2021/07/26 01:53:42;;;;;;;11.25;7.45;;;16.10;99.90;;;;;;4995145;28;20061;-92
2021/07/26 01:56:08;;;;;;;16.80;8.70;;;16.10;99.90;;;;;;4978298;28;20026;-91
2021/07/26 01:58:34;;;;;;;12.07;8.20;;;16.10;99.90;;;;;;4977747;28;20041;-91
2021/07/26 02:01:00;;;;;;;13.88;9.00;;;16.10;99.90;;;;;;4977926;28;20709;-91
2021/07/26 02:03:25;;;;;;;13.68;9.30;;;16.10;99.90;;;;;;4977926;28;20030;-92
2021/07/26 02:05:51;;;;;;;13.18;8.63;;;16.10;99.90;;;;;;4977905;28;20038;-91
2021/07/26 02:08:17;;;;;;;12.70;8.90;;;16.00;99.90;;;;;;4977882;28;20029;-91
2021/07/26 02:10:42;;;;;;;14.77;9.02;;;16.00;99.90;;;;;;4978562;28;20026;-93
2021/07/26 02:13:08;;;;;;;18.30;9.40;;;16.00;99.90;;;;;;4978633;28;20037;-91
2021/07/26 02:15:33;;;;;;;14.00;9.02;;;16.00;99.90;;;;;;4979721;28;20030;-91
2021/07/26 02:17:59;;;;;;;13.75;8.70;;;16.00;99.90;;;;;;4987236;28;20483;-91
2021/07/26 02:20:25;;;;;;;15.00;8.27;;;16.00;99.90;;;;;;4988362;28;20034;-91
2021/07/26 02:22:50;;;;;;;15.25;9.68;;;16.00;99.90;;;;;;4995655;28;20011;-91
2021/07/26 02:25:17;;;;;;;12.98;8.63;;;16.00;99.90;;;;;;4997133;28;20032;-92
2021/07/26 02:27:44;;;;;;;19.80;8.35;;;16.00;99.90;;;;;;4986471;28;20496;-91
2021/07/26 02:30:10;;;;;;;14.25;8.00;;;16.00;99.90;;;;;;4983454;28;20060;-92
2021/07/26 02:32:36;;;;;;;12.02;8.10;;;16.00;99.90;;;;;;4980874;28;20515;-91
2021/07/26 02:35:01;;;;;;;16.00;9.02;;;16.00;99.90;;;;;;4981642;28;20053;-92
2021/07/26 02:37:27;;;;;;;17.38;8.57;;;16.00;99.90;;;;;;4982887;28;20026;-91
2021/07/26 02:39:52;;;;;;;11.50;8.23;;;16.00;99.90;;;;;;4985064;28;20057;-91
2021/07/26 02:42:18;;;;;;;13.27;8.75;;;16.00;99.90;;;;;;4988665;28;20027;-92
2021/07/26 02:44:44;;;;;;;13.88;8.27;;;16.00;99.90;;;;;;4989696;28;20118;-91
2021/07/26 02:47:09;;;;;;;14.05;9.80;;;16.00;99.90;;;;;;4989734;28;20033;-91
2021/07/26 02:49:35;;;;;;;14.07;9.00;;;16.00;99.90;;;;;;4990632;28;20480;-92
2021/07/26 02:52:01;;;;;;;16.92;9.65;;;16.00;99.90;;;;;;4990417;28;20027;-92
2021/07/26 02:54:26;;;;;;;14.73;8.10;;;16.00;99.90;;;;;;4988635;28;20123;-92
2021/07/26 02:56:52;;;;;;;15.20;8.60;;;15.90;99.90;;;;;;4986332;28;20029;-91
2021/07/26 02:59:17;;;;;;;14.20;9.13;;;15.90;99.90;;;;;;4982157;28;20042;-91
2021/07/26 03:01:43;;;;;;;12.77;8.63;;;15.90;99.90;;;;;;4981985;28;20486;-92
2021/07/26 03:04:10;;;;;;;15.27;8.63;;;16.00;99.90;;;;;;4981991;28;20030;-92
2021/07/26 03:06:36;;;;;;;16.27;8.77;;;16.00;99.90;;;;;;4982187;28;20030;-91
2021/07/26 03:09:02;;;;;;;12.95;8.25;;;15.90;99.90;;;;;;4981979;28;20089;-91
2021/07/26 03:11:27;;;;;;;11.35;8.13;;;16.00;99.90;;;;;;4981563;28;20062;-91
2021/07/26 03:13:53;;;;;;;13.13;8.80;;;15.90;99.90;;;;;;4981757;28;20038;-91
2021/07/26 03:16:20;;;;;;;13.95;8.93;;;16.00;99.90;;;;;;4981711;28;20034;-91
2021/07/26 03:18:45;;;;;;;14.73;8.80;;;16.00;99.90;;;;;;4981836;28;20520;-91
2021/07/26 03:21:15;;;;;;;12.38;8.00;;;16.00;99.90;;;;;;4981604;28;20033;-92
2021/07/26 03:23:41;;;;;;;14.07;8.30;;;16.00;99.90;;;;;;4981732;28;20035;-90
2021/07/26 03:26:07;;;;;;;13.45;8.55;;;16.00;99.90;;;;;;4981451;28;20550;-91
2021/07/26 03:28:34;;;;;;;13.43;8.27;;;16.00;99.90;;;;;;4981323;28;20030;-92
2021/07/26 03:31:01;;;;;;;17.67;8.27;;;16.00;99.90;;;;;;4981407;28;20472;-91
2021/07/26 03:33:28;;;;;;;14.00;7.97;;;16.00;99.90;;;;;;4980628;28;20134;-90
2021/07/26 03:35:53;;;;;;;13.25;8.23;;;16.00;99.90;;;;;;4981032;28;20046;-91
2021/07/26 03:38:20;;;;;;;14.27;8.82;;;16.00;99.90;;;;;;4981741;28;20030;-91
2021/07/26 03:40:47;;;;;;;14.73;8.60;;;15.90;99.90;;;;;;4981246;28;20054;-91
2021/07/26 03:43:13;;;;;;;11.75;7.63;;;15.90;99.90;;;;;;4981673;28;20027;-91
2021/07/26 03:45:39;;;;;;;13.95;8.85;;;15.90;99.90;;;;;;4980673;28;20488;-92
2021/07/26 03:48:05;;;;;;;15.05;8.35;;;16.00;99.90;;;;;;4980609;28;20117;-91
2021/07/26 03:50:31;;;;;;;16.65;9.35;;;16.00;99.90;;;;;;4980091;28;20121;-90
2021/07/26 03:52:57;;;;;;;13.80;7.70;;;16.00;99.90;;;;;;4980230;28;20065;-92
2021/07/26 03:55:30;;;;;;;16.98;9.40;;;15.90;99.90;;;;;;4980185;28;20030;-92
2021/07/26 03:57:58;;;;;;;13.90;9.25;;;15.90;99.90;;;;;;4979938;28;20122;-92
2021/07/26 04:00:24;;;;;;;14.02;8.80;;;15.90;99.90;;;;;;4979035;28;20539;-92
2021/07/26 04:05:36;;;;;;;13.85;8.85;;;15.90;99.90;;;;;;4997089;28;20026;-92
2021/07/26 04:08:04;;;;;;;15.95;8.80;;;15.90;99.90;;;;;;4979759;28;20029;-92
2021/07/26 04:10:30;;;;;;;16.92;8.65;;;15.90;99.90;;;;;;4980278;28;20053;-92
2021/07/26 04:12:55;;;;;;;10.48;8.25;;;15.90;99.90;;;;;;4980066;28;20022;-92
2021/07/26 04:15:21;;;;;;;13.98;9.00;;;15.90;99.90;;;;;;4979955;28;20037;-92
2021/07/26 04:17:47;;;;;;;16.55;8.43;;;16.00;99.90;;;;;;4980163;28;20026;-93
2021/07/26 04:20:12;;;;;;;13.88;8.85;;;16.00;99.90;;;;;;4979838;28;20041;-92
2021/07/26 04:22:38;;;;;;;15.30;9.85;;;15.90;99.90;;;;;;4979801;28;20104;-93
2021/07/26 04:25:04;;;;;;;13.32;8.43;;;15.90;99.90;;;;;;4979643;28;20026;-93
2021/07/26 04:27:32;;;;;;;14.73;8.93;;;15.90;99.90;;;;;;4979814;28;20030;-93
2021/07/26 04:29:58;;;;;;;16.27;8.70;;;15.90;99.90;;;;;;4979892;28;20018;-93
2021/07/26 04:32:23;;;;;;;14.55;9.00;;;15.90;99.90;;;;;;4979271;28;20133;-91
2021/07/26 04:34:49;;;;;;;12.18;8.48;;;15.90;99.90;;;;;;4982407;28;20049;-93
2021/07/26 04:37:15;;;;;;;14.20;8.43;;;15.90;99.90;;;;;;4992116;28;20066;-91
2021/07/26 04:39:40;;;;;;;15.68;8.90;;;15.90;99.90;;;;;;4988429;28;20034;-93
2021/07/26 04:42:06;;;;;;;11.15;8.38;;;15.90;99.90;;;;;;4991645;28;20046;-92
2021/07/26 04:44:32;;;;;;;17.13;8.43;;;15.90;99.90;;;;;;4994530;28;20034;-91
2021/07/26 04:46:57;;;;;;;12.88;8.43;;;15.90;99.90;;;;;;4995547;28;20019;-91
2021/07/26 04:49:23;;;;;;;15.30;9.00;;;15.90;99.90;;;;;;5000857;28;20014;-93
2021/07/26 04:51:49;;;;;;;16.77;9.05;;;15.90;99.90;;;;;;4993959;28;20033;-91
2021/07/26 04:54:14;;;;;;;21.08;10.48;;;15.90;99.90;;;;;;4981266;28;20042;-91
2021/07/26 04:56:40;;;;;;;20.27;10.30;;;15.80;99.90;;;;;;4980400;28;20498;-90
2021/07/26 04:59:06;;;;;;;15.43;9.18;;;15.80;99.90;;;;;;4980049;28;20606;-92
2021/07/26 05:01:31;;;;;;;16.92;9.68;;;15.80;99.90;;;;;;4979686;28;20070;-91
2021/07/26 05:03:57;;;;;;;15.77;8.98;;;15.80;99.90;;;;;;4979524;28;20018;-91
2021/07/26 05:06:23;;;;;;;17.75;9.35;;;15.80;99.90;;;;;;4979204;28;20023;-91
2021/07/26 05:08:48;;;;;;;14.25;9.48;;;15.80;99.90;;;;;;4979421;28;20487;-92
2021/07/26 05:11:14;;;;;;;14.00;9.07;;;15.80;99.90;;;;;;4979248;28;20026;-91
2021/07/26 05:13:39;;;;;;;20.00;10.30;;;15.80;99.90;;;;;;4979011;28;20042;-91
2021/07/26 05:16:05;;;;;;;13.63;8.65;;;15.80;99.90;;;;;;4979202;28;20034;-91
2021/07/26 05:18:31;;;;;;;14.90;9.68;;;15.80;99.90;;;;;;4963207;28;20038;-91
2021/07/26 05:20:56;;;;;;;15.82;9.38;;;15.80;99.90;;;;;;4978934;28;20026;-90
2021/07/26 05:23:22;;;;;;;19.25;8.95;;;15.80;99.90;;;;;;4978755;28;20030;-90
2021/07/26 05:25:47;;;;;;;15.23;9.30;;;15.80;99.90;;;;;;4986533;28;20026;-91
2021/07/26 05:28:14;;;;;;;16.77;9.73;;;15.80;99.90;;;;;;4979075;28;20033;-91
2021/07/26 05:30:40;;;;;;;15.55;9.52;;;15.90;99.90;;;;;;4977977;28;20571;-92
2021/07/26 05:33:06;;;;;;;15.75;10.50;;;15.90;99.90;;;;;;4978014;28;20586;-92
2021/07/26 05:35:32;;;;;;;16.10;10.05;;;15.90;99.90;;;;;;4978942;28;20034;-91
2021/07/26 05:38:02;;;;;;;14.98;9.40;;;15.90;99.90;;;;;;4978823;28;20022;-91
2021/07/26 05:40:28;;;;;;;15.13;8.80;;;15.90;99.90;;;;;;4978573;28;20088;-92
2021/07/26 05:42:53;;;;;;;12.40;8.55;;;16.00;99.90;;;;;;4978676;28;20492;-90
2021/07/26 05:45:19;;;;;;;18.40;9.15;;;16.00;99.90;;;;;;4979164;28;20460;-91
2021/07/26 05:47:49;;;;;;;17.35;9.75;;;16.00;99.90;;;;;;4978990;28;20046;-91
2021/07/26 05:50:15;;;;;;;16.15;9.75;;;16.10;99.90;;;;;;4962369;28;20022;-93
2021/07/26 05:52:41;;;;;;;18.25;9.70;;;16.10;99.90;;;;;;4977474;28;20045;-93
2021/07/26 05:55:07;;;;;;;30.88;9.98;;;16.20;99.90;;;;;;4977518;28;20037;-92
2021/07/26 05:57:36;;;;;;;15.30;9.68;;;16.20;99.90;;;;;;4977562;28;20033;-93
2021/07/26 06:00:08;;;;;;;15.60;9.88;;;16.30;99.90;;;;;;4977444;28;20046;-94
2021/07/26 06:02:34;;;;;;;22.33;10.27;;;16.30;99.90;;;;;;4977400;28;20050;-92
2021/07/26 06:05:00;;;;;;;19.02;9.93;;;16.30;99.90;;;;;;4977722;28;20031;-93
2021/07/26 06:07:25;;;;;;;14.80;9.70;;;16.40;99.90;;;;;;4977576;28;20034;-92
2021/07/26 06:09:51;;;;;;;15.68;10.45;;;16.50;99.90;;;;;;4977172;28;20030;-92
2021/07/26 06:12:17;;;;;;;17.70;10.32;;;16.50;99.90;;;;;;4977348;28;20026;-92
2021/07/26 06:14:43;;;;;;;16.20;9.65;;;16.60;99.90;;;;;;4977438;28;20070;-93
2021/07/26 06:17:08;;;;;;;17.30;10.20;;;16.60;99.90;;;;;;4976258;28;20023;-92
2021/07/26 06:19:35;;;;;;;18.30;9.93;;;16.60;99.90;;;;;;4977938;28;20035;-92
2021/07/26 06:22:00;;;;;;;17.30;10.43;;;16.60;99.90;;;;;;4986558;28;20030;-91
2021/07/26 06:24:26;;;;;;;16.60;10.27;;;16.70;99.90;;;;;;4993344;28;20038;-92
2021/07/26 06:26:55;;;;;;;17.00;10.27;;;16.70;99.90;;;;;;4992944;28;20037;-92
2021/07/26 06:29:23;;;;;;;15.80;10.23;;;16.80;99.90;;;;;;4992545;28;20030;-92
2021/07/26 06:31:48;;;;;;;17.77;9.95;;;16.80;99.90;;;;;;4981420;28;20507;-92
2021/07/26 06:34:14;;;;;;;16.00;10.35;;;16.80;99.90;;;;;;4964864;28;20034;-91
2021/07/26 06:36:40;;;;;;;16.60;10.18;;;16.90;99.90;;;;;;4964144;28;20027;-91
2021/07/26 06:39:07;;;;;;;15.00;10.32;;;17.00;99.90;;;;;;4959920;28;20027;-91
2021/07/26 06:41:32;;;;;;;15.45;10.90;;;17.00;99.90;;;;;;4957400;28;20061;-91
2021/07/26 06:43:58;;;;;;;23.08;11.65;;;17.00;99.90;;;;;;4958175;28;20035;-92
2021/07/26 06:46:25;;;;;;;19.17;10.95;;;17.00;99.90;;;;;;4958078;28;20023;-92
2021/07/26 06:48:50;;;;;;;15.27;10.15;;;17.10;99.90;;;;;;4957672;28;20042;-91
2021/07/26 06:51:17;;;;;;;18.20;10.60;;;17.10;99.90;;;;;;4957392;28;20031;-91
2021/07/26 06:53:43;;;;;;;20.25;11.65;;;17.20;99.90;;;;;;4960264;28;20126;-92
2021/07/26 06:56:10;;;;;;;14.77;10.50;;;17.20;99.90;;;;;;4964149;28;20392;-92
2021/07/26 06:58:36;;;;;;;19.58;10.93;;;17.30;99.90;;;;;;4964009;28;20113;-92
2021/07/26 07:01:11;;;;;;;20.90;12.55;;;17.40;99.90;;;;;;4963664;28;20173;-92
2021/07/26 07:03:39;;;;;;;16.60;11.98;;;17.40;99.90;;;;;;4961788;28;20504;-93
2021/07/26 07:06:10;;;;;;;21.85;11.88;;;17.50;99.90;;;;;;4967854;28;20036;-93
2021/07/26 07:08:36;;;;;;;21.88;13.23;;;17.50;99.90;;;;;;4962925;28;20801;-92
2021/07/26 07:11:07;;;;;;;27.13;12.90;;;17.60;99.90;;;;;;4965017;28;20250;-90
2021/07/26 07:13:35;;;;;;;24.42;12.15;;;17.60;99.90;;;;;;4964277;28;20036;-92
2021/07/26 07:16:01;;;;;;;23.77;14.68;;;17.70;99.90;;;;;;4964101;28;20030;-93
2021/07/26 07:18:28;;;;;;;23.88;13.75;;;17.80;99.90;;;;;;4964268;28;20045;-93
2021/07/26 07:20:53;;;;;;;24.98;13.15;;;17.80;99.90;;;;;;4963369;28;20038;-91
2021/07/26 07:23:19;;;;;;;31.15;16.02;;;17.90;99.90;;;;;;4962386;28;20401;-90
2021/07/26 07:25:45;;;;;;;21.17;13.77;;;18.00;99.90;;;;;;4964343;28;20034;-93
2021/07/26 07:28:11;;;;;;;22.48;12.38;;;18.10;99.90;;;;;;4963124;28;20030;-92
2021/07/26 07:30:36;;;;;;;30.42;14.48;;;18.20;99.90;;;;;;4965415;28;20054;-92
2021/07/26 07:33:02;;;;;;;29.92;14.20;;;18.30;99.90;;;;;;4971666;28;20042;-93
2021/07/26 07:35:29;;;;;;;26.02;14.73;;;18.30;99.90;;;;;;4967588;28;20034;-93
2021/07/26 07:37:54;;;;;;;26.92;14.30;;;18.40;99.90;;;;;;4964146;28;20037;-92
2021/07/26 07:40:22;;;;;;;26.80;14.38;;;18.40;99.90;;;;;;4960782;28;20034;-94
2021/07/26 07:42:49;;;;;;;25.30;14.02;;;18.50;99.90;;;;;;4960861;28;20034;-90
2021/07/26 07:45:14;;;;;;;29.25;14.65;;;18.60;99.90;;;;;;4961529;28;20089;-92
2021/07/26 07:47:40;;;;;;;29.67;15.30;;;18.70;99.90;;;;;;4960873;28;20105;-91
2021/07/26 07:50:07;;;;;;;24.13;13.27;;;18.80;99.90;;;;;;4960606;28;20031;-93
2021/07/26 07:52:34;;;;;;;25.35;13.85;;;18.90;99.90;;;;;;4961923;28;20030;-94
2021/07/26 07:55:00;;;;;;;28.42;14.00;;;19.00;99.90;;;;;;4961061;28;20038;-88
2021/07/26 07:57:28;;;;;;;22.55;13.50;;;19.10;99.90;;;;;;4967481;28;20033;-89
2021/07/26 07:59:55;;;;;;;22.73;13.07;;;19.10;99.90;;;;;;4968202;28;20065;-89
2021/07/26 08:02:21;;;;;;;24.15;13.50;;;19.20;99.90;;;;;;4968450;28;20052;-90
2021/07/26 08:04:46;;;;;;;21.48;12.27;;;19.30;99.90;;;;;;4969604;28;20477;-90
2021/07/26 08:07:12;;;;;;;24.45;12.85;;;19.40;99.90;;;;;;4968475;28;20064;-90
2021/07/26 08:09:37;;;;;;;25.77;14.05;;;19.40;99.90;;;;;;4967435;28;20037;-90
2021/07/26 08:12:04;;;;;;;21.67;12.98;;;19.40;99.90;;;;;;4969446;28;20044;-90
2021/07/26 08:14:29;;;;;;;24.85;12.73;;;19.50;99.90;;;;;;4968622;28;20038;-90
2021/07/26 08:17:03;;;;;;;27.27;10.90;;;19.50;99.90;;;;;;4971515;28;20377;-90
2021/07/26 08:19:29;;;;;;;18.23;10.57;;;19.60;99.90;;;;;;4970000;28;20019;-89
2021/07/26 08:21:55;;;;;;;18.77;10.75;;;19.70;99.90;;;;;;4985796;28;20096;-90
2021/07/26 08:24:20;;;;;;;16.00;10.20;;;19.80;99.90;;;;;;4966007;28;20026;-90
2021/07/26 08:26:46;;;;;;;17.73;9.95;;;19.90;99.90;;;;;;4970060;28;20112;-91
2021/07/26 08:29:12;;;;;;;19.83;9.85;;;20.00;99.90;;;;;;4968228;28;20113;-90
2021/07/26 08:31:38;;;;;;;14.52;9.60;;;20.00;99.90;;;;;;4968099;28;20058;-90
2021/07/26 08:34:03;;;;;;;15.75;8.90;;;20.20;99.90;;;;;;4965379;28;20508;-90
2021/07/26 08:36:29;;;;;;;15.20;10.20;;;20.30;99.90;;;;;;4967455;28;20026;-89
2021/07/26 08:38:54;;;;;;;16.75;8.50;;;20.40;99.90;;;;;;4969466;28;20062;-90
2021/07/26 08:41:20;;;;;;;16.27;9.30;;;20.50;99.90;;;;;;4971740;28;20487;-90
2021/07/26 08:43:47;;;;;;;12.90;8.65;;;20.60;99.50;;;;;;4972652;28;20038;-90
2021/07/26 08:46:17;;;;;;;16.85;8.63;;;20.70;99.20;;;;;;4978628;28;20023;-89
2021/07/26 08:48:45;;;;;;;14.63;8.48;;;20.80;98.80;;;;;;4978890;28;20258;-90
2021/07/26 08:51:14;;;;;;;12.38;8.18;;;20.90;98.40;;;;;;4975482;28;20027;-89
2021/07/26 08:53:40;;;;;;;10.98;6.22;;;21.00;97.80;;;;;;4973035;28;20094;-89
2021/07/26 08:56:06;;;;;;;15.55;6.75;;;21.10;97.10;;;;;;4955514;28;20026;-91
2021/07/26 08:58:32;;;;;;;15.82;7.28;;;21.20;96.10;;;;;;4962906;28;20030;-91
2021/07/26 09:00:58;;;;;;;12.75;6.72;;;21.30;95.40;;;;;;4962819;28;20026;-91
2021/07/26 09:03:24;;;;;;;14.18;6.78;;;21.40;94.80;;;;;;4962894;28;20031;-90
2021/07/26 09:05:50;;;;;;;9.35;6.55;;;21.40;94.40;;;;;;4962732;28;20054;-90
2021/07/26 09:08:16;;;;;;;11.30;6.57;;;21.50;94.10;;;;;;4963160;28;20067;-91
2021/07/26 09:10:43;;;;;;;9.02;6.05;;;21.70;93.80;;;;;;4962746;28;20030;-88
2021/07/26 09:13:12;;;;;;;9.40;6.30;;;21.90;93.40;;;;;;4962420;28;20035;-91
2021/07/26 09:15:40;;;;;;;9.68;6.55;;;22.10;92.60;;;;;;4962623;28;20050;-89
2021/07/26 09:18:08;;;;;;;11.77;7.60;;;22.30;92.20;;;;;;4962985;28;20023;-92
2021/07/26 09:20:39;;;;;;;12.88;6.90;;;22.50;91.20;;;;;;4964057;28;20504;-91
2021/07/26 09:23:16;;;;;;;11.80;6.90;;;22.60;90.50;;;;;;4964254;28;20029;-91
2021/07/26 09:25:46;;;;;;;11.18;6.35;;;22.70;89.90;;;;;;4964055;28;20022;-92
2021/07/26 09:28:13;;;;;;;18.95;6.50;;;22.80;88.70;;;;;;4964051;28;20019;-89
2021/07/26 09:30:46;;;;;;;13.88;6.20;;;22.80;87.30;;;;;;4964770;28;20026;-90
2021/07/26 09:33:24;;;;;;;14.10;6.40;;;22.90;87.00;;;;;;4962478;28;20066;-91
2021/07/26 09:36:09;;;;;;;10.55;6.00;;;22.80;85.20;;;;;;4963797;28;20047;-90
2021/07/26 09:38:36;;;;;;;9.60;5.55;;;23.00;85.00;;;;;;4962938;28;20081;-91
2021/07/26 09:41:05;;;;;;;10.57;6.60;;;23.10;82.20;;;;;;4962840;28;20122;-90
2021/07/26 09:43:31;;;;;;;12.50;6.57;;;23.10;82.20;;;;;;4963614;28;20050;-90
2021/07/26 09:45:59;;;;;;;13.07;6.82;;;23.20;82.30;;;;;;4963663;28;20030;-89
2021/07/26 09:48:26;;;;;;;11.20;7.28;;;23.40;82.50;;;;;;4963071;28;20046;-90
2021/07/26 09:50:54;;;;;;;12.55;6.55;;;23.60;82.30;;;;;;4962522;28;20034;-91
2021/07/26 09:53:24;;;;;;;10.23;6.53;;;23.80;82.30;;;;;;4962602;28;20050;-88
2021/07/26 09:55:51;;;;;;;;;;;23.90;81.00;;;;;;4964064;28;20035;-90
2021/07/26 09:58:19;;;;;;;11.55;6.95;;;23.90;80.30;;;;;;4962685;28;19921;-90
2021/07/26 10:00:46;;;;;;;12.27;7.63;;;23.90;79.80;;;;;;4964455;28;20058;-91
2021/07/26 10:03:14;;;;;;;12.13;7.90;;;24.00;79.20;;;;;;4963383;28;20031;-89
2021/07/26 10:05:41;;;;;;;11.02;7.07;;;24.00;78.80;;;;;;4973450;28;20046;-90
2021/07/26 10:08:08;;;;;;;9.57;6.97;;;24.00;78.20;;;;;;4975575;28;20035;-90
2021/07/26 10:10:36;;;;;;;10.95;7.15;;;24.00;77.70;;;;;;4974438;28;20027;-89
2021/07/26 10:13:03;;;;;;;11.70;7.70;;;24.10;77.60;;;;;;4970582;28;20035;-90
2021/07/26 10:15:32;;;;;;;13.18;7.32;;;24.10;77.40;;;;;;4970615;28;20050;-91
2021/07/26 10:17:58;;;;;;;16.83;6.25;;;24.30;77.50;;;;;;4966938;28;20019;-89
2021/07/26 10:20:26;;;;;;;11.15;6.40;;;24.50;77.40;;;;;;4966870;28;20131;-90
2021/07/26 10:23:15;;;;;;;10.95;6.50;;;24.50;75.70;;;;;;4964103;28;20031;-90
2021/07/26 10:25:55;;;;;;;9.27;6.10;;;24.50;75.80;;;;;;4962215;28;20030;-90
2021/07/26 10:28:33;;;;;;;11.25;5.85;;;24.30;75.90;;;;;;4962141;28;20027;-90
2021/07/26 10:30:59;;;;;;;12.07;6.20;;;24.10;75.90;;;;;;4961931;28;20043;-89
2021/07/26 10:33:25;;;;;;;8.45;5.60;;;23.90;75.90;;;;;;4961879;28;20057;-91
2021/07/26 10:35:54;;;;;;;9.02;5.05;;;24.00;76.00;;;;;;4962487;28;20027;-90
2021/07/26 10:38:43;;;;;;;10.57;5.97;;;24.00;75.30;;;;;;4964606;28;20022;-90
2021/07/26 10:41:09;;;;;;;9.93;6.10;;;24.10;75.40;;;;;;4974574;28;20058;-89
2021/07/26 10:43:54;;;;;;;10.57;5.95;;;24.30;75.00;;;;;;4965895;28;20018;-89
2021/07/26 10:46:20;;;;;;;9.77;6.00;;;24.50;74.80;;;;;;4968829;28;20046;-89
2021/07/26 10:48:50;;;;;;;8.90;5.85;;;24.70;73.90;;;;;;4971925;28;20022;-89
2021/07/26 10:51:45;;;;;;;11.18;6.18;;;24.90;72.90;;;;;;4967386;28;20015;-89
2021/07/26 10:54:32;;;;;;;11.63;6.65;;;25.00;71.80;;;;;;4957531;28;20042;-89
2021/07/26 10:57:04;;;;;;;16.48;6.70;;;25.20;71.90;;;;;;4959175;28;20027;-90
2021/07/26 10:59:31;;;;;;;11.15;6.45;;;25.40;71.60;;;;;;4964096;28;20035;-89
2021/07/26 11:02:01;;;;;;;12.57;6.93;;;25.60;71.10;;;;;;4967641;28;20078;-89
2021/07/26 11:04:38;;;;;;;9.10;6.93;;;25.80;70.10;;;;;;4970200;28;20034;-88
2021/07/26 11:07:12;;;;;;;12.05;6.57;;;25.90;68.90;;;;;;4975835;28;20095;-90
2021/07/26 11:09:45;;;;;;;12.02;6.88;;;25.70;68.30;;;;;;4974741;28;20026;-90
2021/07/26 11:12:11;;;;;;;11.65;6.75;;;25.60;68.70;;;;;;4975010;28;20018;-89
2021/07/26 11:14:37;;;;;;;16.20;7.38;;;25.60;69.30;;;;;;4971250;28;20045;-90
2021/07/26 11:17:05;;;;;;;11.18;6.22;;;25.60;69.50;;;;;;4966535;28;20023;-90
2021/07/26 11:20:15;;;;;;;11.07;7.50;;;25.60;69.10;;;;;;4976844;28;20049;-90
2021/07/26 11:22:37;;;;;;;12.40;6.95;;;25.50;68.50;;;;;;4992200;28;20432;-91
2021/07/26 11:25:08;;;;;;;12.88;7.15;;;25.60;68.80;;;;;;4970617;28;20056;-91
2021/07/26 11:27:33;;;;;;;10.43;6.82;;;25.50;69.20;;;;;;4990391;28;20037;-90
2021/07/26 11:29:59;;;;;;;9.48;6.95;;;25.50;69.10;;;;;;4971744;28;20101;-90
2021/07/26 11:32:27;;;;;;;11.35;7.15;;;25.40;69.20;;;;;;4965953;28;20057;-90
2021/07/26 11:34:56;;;;;;;11.85;7.05;;;25.30;68.60;;;;;;4960935;28;20069;-89
2021/07/26 11:37:39;;;;;;;11.00;5.97;;;25.50;68.40;;;;;;4970159;28;20490;-90
2021/07/26 11:40:09;;;;;;;9.07;6.00;;;25.60;67.50;;;;;;4980451;28;20027;-90
2021/07/26 11:42:37;;;;;;;12.18;6.57;;;25.80;67.00;;;;;;4980780;28;20472;-91
2021/07/26 11:45:04;;;;;;;10.52;6.45;;;25.90;66.20;;;;;;4980456;28;20030;-90
2021/07/26 11:47:38;;;;;;;7.50;5.90;;;25.80;65.60;;;;;;4980267;28;20070;-90
2021/07/26 11:50:06;;;;;;;8.35;5.95;;;26.10;65.40;;;;;;4980129;28;20027;-90
2021/07/26 11:52:32;;;;;;;7.47;5.75;;;26.50;64.80;;;;;;4980293;28;20026;-90
2021/07/26 11:54:58;;;;;;;14.30;5.57;;;26.80;63.40;;;;;;4980100;28;20049;-91
2021/07/26 11:57:23;;;;;;;8.50;5.90;;;27.00;62.40;;;;;;4979447;28;20022;-90
2021/07/26 11:59:53;;;;;;;11.15;7.57;;;27.30;61.80;;;;;;4979190;28;20041;-90
2021/07/26 12:02:30;;;;;;;11.60;7.88;;;27.20;61.90;;;;;;4979900;28;20492;-90
2021/07/26 12:05:01;;;;;;;8.95;6.45;;;26.90;62.70;;;;;;4980110;28;20054;-90
2021/07/26 12:07:45;;;;;;;13.25;7.20;;;26.60;62.90;;;;;;4979812;28;20022;-90
2021/07/26 12:10:16;;;;;;;7.32;5.78;;;26.60;63.50;;;;;;4979937;28;20080;-90
2021/07/26 12:12:46;;;;;;;;;;;26.70;63.30;;;;;;4980235;28;20064;-90
2021/07/26 12:15:22;;;;;;;8.02;5.88;;;27.00;63.10;;;;;;4980007;28;20232;-90
2021/07/26 12:18:01;;;;;;;9.25;6.15;;;27.30;61.90;;;;;;4979305;28;20027;-90
2021/07/26 12:20:27;;;;;;;10.82;6.45;;;27.60;61.50;;;;;;4979598;28;20046;-90
2021/07/26 12:22:52;;;;;;;8.68;6.63;;;28.00;60.50;;;;;;4974385;28;20023;-91
2021/07/26 12:25:21;;;;;;;8.50;5.70;;;28.30;59.50;;;;;;4981279;28;20030;-91
2021/07/26 12:27:59;;;;;;;6.95;5.60;;;28.40;58.40;;;;;;4980026;28;20104;-90
2021/07/26 12:30:49;;;;;;;12.75;7.13;;;28.20;57.80;;;;;;4979704;28;20066;-90
2021/07/26 12:33:35;;;;;;;;;;;28.00;58.10;;;;;;4979152;28;20078;-90
2021/07/26 12:36:11;;;;;;;14.43;7.90;;;27.80;58.80;;;;;;4979405;28;19937;-90
2021/07/26 12:38:37;;;;;;;10.15;7.80;;;27.90;59.40;;;;;;4979498;28;20044;-91
2021/07/26 12:41:05;;;;;;;10.57;7.63;;;28.10;59.40;;;;;;4979563;28;20121;-91
2021/07/26 12:43:31;;;;;;;11.60;8.18;;;28.20;58.80;;;;;;4979999;28;20053;-90
2021/07/26 12:45:59;;;;;;;12.50;8.32;;;28.20;58.60;;;;;;4978984;28;20097;-90